Terminal Aerodrome Forecast
Issued by NWS

Home | Current Version | Previous Version | Text Only | Print | Product List | Glossary On
Versions: 1 2 3 4 5 6 7 8 9 10 11 12 13 14 15 16 17 18 19 20 21 22 23 24 25
000
FTUS41 KBUF 302100 AAA
TAFIAG
TAF AMD
KIAG 302102Z 3021/0118 35009KT P6SM VCSH FEW050 BKN080
     FM302200 04007KT P6SM SCT035 BKN110
     FM010200 07006KT P6SM SCT060 BKN130
     FM010500 06005KT 2SM BR BKN012 BKN060
     FM011300 06007KT P6SM BKN012=

USA.gov is the U.S. government's official web portal to all federal, state and local government web resources and services.